TimeMST,TemperatureF,Dew PointF,Humidity,Sea Level PressureIn,VisibilityMPH,Wind Direction,Wind SpeedMPH,Gust SpeedMPH,PrecipitationIn,Events,Conditions,WindDirDegrees,DateUTC
12:53 AM,28.0,5.0,38,30.33,10.0,North,6.9,-,N/A,,Clear,360,2012-11-27 07:53:00
1:53 AM,28.0,5.0,38,30.33,10.0,ENE,5.8,-,N/A,,Clear,70,2012-11-27 08:53:00
2:53 AM,26.1,5.0,41,30.33,10.0,Calm,Calm,-,N/A,,Clear,0,2012-11-27 09:53:00
3:53 AM,23.0,3.9,44,30.35,10.0,Calm,Calm,-,N/A,,Clear,0,2012-11-27 10:53:00
4:53 AM,24.8,6.8,46,30.30,10.0,NE,5.8,-,N/A,,Clear,40,2012-11-27 11:53:00
5:53 AM,24.1,7.0,48,30.43,10.0,Calm,Calm,-,N/A,,Clear,0,2012-11-27 12:53:00
6:53 AM,21.0,6.1,53,30.47,10.0,Calm,Calm,-,N/A,,Clear,0,2012-11-27 13:53:00
7:53 AM,26.1,8.1,47,30.47,10.0,Calm,Calm,-,N/A,,Clear,0,2012-11-27 14:53:00
8:53 AM,34.0,8.1,34,30.46,10.0,Calm,Calm,-,N/A,,Clear,0,2012-11-27 15:53:00
9:53 AM,41.0,9.0,27,30.45,10.0,Calm,Calm,-,N/A,,Clear,0,2012-11-27 16:53:00
10:53 AM,44.1,10.0,25,30.44,10.0,Calm,Calm,-,N/A,,Clear,0,2012-11-27 17:53:00
11:53 AM,46.0,10.9,24,30.40,10.0,Variable,3.5,-,N/A,,Clear,0,2012-11-27 18:53:00
12:53 PM,46.9,10.9,23,30.38,10.0,SSW,5.8,-,N/A,,Clear,200,2012-11-27 19:53:00
1:53 PM,48.9,10.9,22,30.35,10.0,SSE,5.8,-,N/A,,Clear,150,2012-11-27 20:53:00
2:53 PM,48.9,12.0,23,30.35,10.0,Variable,5.8,-,N/A,,Clear,0,2012-11-27 21:53:00
3:53 PM,48.9,12.0,23,30.37,10.0,Calm,Calm,-,N/A,,Clear,0,2012-11-27 22:53:00
4:53 PM,46.0,12.0,25,30.37,10.0,Calm,Calm,-,N/A,,Clear,0,2012-11-27 23:53:00
5:53 PM,35.1,8.1,33,30.43,10.0,NNE,9.2,-,N/A,,Clear,20,2012-11-28 00:53:00
6:53 PM,33.1,9.0,37,30.45,10.0,NNE,8.1,-,N/A,,Clear,30,2012-11-28 01:53:00
7:53 PM,32.0,10.0,40,30.44,10.0,North,10.4,-,N/A,,Clear,10,2012-11-28 02:53:00
8:53 PM,32.0,10.0,40,30.41,10.0,North,9.2,-,N/A,,Clear,10,2012-11-28 03:53:00
9:53 PM,30.9,10.0,42,30.39,10.0,North,9.2,-,N/A,,Clear,10,2012-11-28 04:53:00
10:53 PM,30.9,10.0,42,30.38,10.0,North,9.2,-,N/A,,Clear,10,2012-11-28 05:53:00
11:53 PM,28.9,10.0,45,30.39,10.0,NE,4.6,-,N/A,,Clear,50,2012-11-28 06:53:00